sensor_id;sensor_type;location;lat;lon;timestamp;P1;durP1;ratioP1;P2;durP2;ratioP2
4895;SDS011;2463;49.948;8.472;2022-07-29T00:02:25;89.23;;;3.63;;
4895;SDS011;2463;49.948;8.472;2022-07-29T00:04:52;87.80;;;3.80;;
4895;SDS011;2463;49.948;8.472;2022-07-29T00:07:19;88.10;;;4.13;;
4895;SDS011;2463;49.948;8.472;2022-07-29T00:09:46;88.00;;;3.93;;
4895;SDS011;2463;49.948;8.472;2022-07-29T00:12:17;90.27;;;3.90;;
4895;SDS011;2463;49.948;8.472;2022-07-29T00:14:51;91.03;;;4.53;;
4895;SDS011;2463;49.948;8.472;2022-07-29T00:17:19;88.23;;;4.17;;
4895;SDS011;2463;49.948;8.472;2022-07-29T00:19:46;91.07;;;4.90;;
4895;SDS011;2463;49.948;8.472;2022-07-29T00:22:12;93.03;;;4.90;;
4895;SDS011;2463;49.948;8.472;2022-07-29T00:24:39;89.40;;;4.20;;
4895;SDS011;2463;49.948;8.472;2022-07-29T00:27:06;87.10;;;3.77;;
4895;SDS011;2463;49.948;8.472;2022-07-29T00:29:33;88.60;;;4.03;;
4895;SDS011;2463;49.948;8.472;2022-07-29T00:32:01;88.23;;;4.10;;
4895;SDS011;2463;49.948;8.472;2022-07-29T00:34:28;87.17;;;3.80;;
4895;SDS011;2463;49.948;8.472;2022-07-29T00:37:14;89.20;;;4.23;;
4895;SDS011;2463;49.948;8.472;2022-07-29T00:39:40;88.67;;;3.97;;
4895;SDS011;2463;49.948;8.472;2022-07-29T00:42:07;90.17;;;4.33;;
4895;SDS011;2463;49.948;8.472;2022-07-29T00:44:37;87.70;;;3.80;;
4895;SDS011;2463;49.948;8.472;2022-07-29T00:47:08;88.57;;;4.47;;
4895;SDS011;2463;49.948;8.472;2022-07-29T00:49:37;90.87;;;3.93;;
4895;SDS011;2463;49.948;8.472;2022-07-29T00:52:05;88.20;;;4.50;;
4895;SDS011;2463;49.948;8.472;2022-07-29T00:54:34;94.10;;;4.30;;
4895;SDS011;2463;49.948;8.472;2022-07-29T00:57:09;91.07;;;4.00;;
4895;SDS011;2463;49.948;8.472;2022-07-29T00:59:37;91.67;;;4.30;;
4895;SDS011;2463;49.948;8.472;2022-07-29T01:02:03;89.00;;;3.97;;
4895;SDS011;2463;49.948;8.472;2022-07-29T01:04:30;89.77;;;4.07;;
4895;SDS011;2463;49.948;8.472;2022-07-29T01:06:58;89.77;;;4.20;;
4895;SDS011;2463;49.948;8.472;2022-07-29T01:09:27;91.07;;;4.40;;
4895;SDS011;2463;49.948;8.472;2022-07-29T01:12:13;91.80;;;4.40;;
4895;SDS011;2463;49.948;8.472;2022-07-29T01:14:42;90.00;;;4.30;;
4895;SDS011;2463;49.948;8.472;2022-07-29T01:20:17;88.87;;;4.10;;
4895;SDS011;2463;49.948;8.472;2022-07-29T01:28:38;88.37;;;4.30;;
4895;SDS011;2463;49.948;8.472;2022-07-29T01:31:01;89.37;;;4.20;;
4895;SDS011;2463;49.948;8.472;2022-07-29T01:33:31;91.17;;;4.30;;
4895;SDS011;2463;49.948;8.472;2022-07-29T01:36:17;88.20;;;4.23;;
4895;SDS011;2463;49.948;8.472;2022-07-29T01:39:04;92.57;;;5.03;;
4895;SDS011;2463;49.948;8.472;2022-07-29T01:41:37;89.53;;;4.27;;
4895;SDS011;2463;49.948;8.472;2022-07-29T01:44:11;89.80;;;4.40;;
4895;SDS011;2463;49.948;8.472;2022-07-29T01:46:45;98.70;;;4.27;;
4895;SDS011;2463;49.948;8.472;2022-07-29T01:49:20;97.30;;;5.47;;
4895;SDS011;2463;49.948;8.472;2022-07-29T01:51:51;89.10;;;4.37;;
4895;SDS011;2463;49.948;8.472;2022-07-29T01:54:38;89.40;;;4.80;;
4895;SDS011;2463;49.948;8.472;2022-07-29T01:57:13;91.03;;;5.03;;
4895;SDS011;2463;49.948;8.472;2022-07-29T01:59:43;90.40;;;4.50;;
4895;SDS011;2463;49.948;8.472;2022-07-29T02:02:13;90.10;;;4.43;;
4895;SDS011;2463;49.948;8.472;2022-07-29T02:04:42;89.70;;;4.23;;
4895;SDS011;2463;49.948;8.472;2022-07-29T02:07:15;90.67;;;4.70;;
4895;SDS011;2463;49.948;8.472;2022-07-29T02:09:45;89.67;;;4.40;;
4895;SDS011;2463;49.948;8.472;2022-07-29T02:12:16;88.27;;;4.20;;
4895;SDS011;2463;49.948;8.472;2022-07-29T02:14:46;90.73;;;4.90;;
4895;SDS011;2463;49.948;8.472;2022-07-29T02:17:18;92.33;;;4.53;;
4895;SDS011;2463;49.948;8.472;2022-07-29T02:19:50;91.10;;;4.70;;
4895;SDS011;2463;49.948;8.472;2022-07-29T02:22:18;89.27;;;4.30;;
4895;SDS011;2463;49.948;8.472;2022-07-29T02:24:46;88.47;;;4.10;;
4895;SDS011;2463;49.948;8.472;2022-07-29T02:27:17;90.37;;;4.57;;
4895;SDS011;2463;49.948;8.472;2022-07-29T02:29:46;95.87;;;5.30;;
4895;SDS011;2463;49.948;8.472;2022-07-29T02:32:13;89.10;;;4.17;;
4895;SDS011;2463;49.948;8.472;2022-07-29T02:34:42;91.20;;;4.37;;
4895;SDS011;2463;49.948;8.472;2022-07-29T02:37:11;90.23;;;4.70;;
4895;SDS011;2463;49.948;8.472;2022-07-29T02:39:39;88.90;;;4.07;;
4895;SDS011;2463;49.948;8.472;2022-07-29T02:42:10;91.27;;;4.50;;
4895;SDS011;2463;49.948;8.472;2022-07-29T02:44:40;91.90;;;4.17;;
4895;SDS011;2463;49.948;8.472;2022-07-29T02:50:21;92.33;;;4.57;;
4895;SDS011;2463;49.948;8.472;2022-07-29T02:55:10;90.63;;;4.47;;
4895;SDS011;2463;49.948;8.472;2022-07-29T02:57:43;100.23;;;4.90;;
4895;SDS011;2463;49.948;8.472;2022-07-29T03:00:21;90.07;;;5.00;;
4895;SDS011;2463;49.948;8.472;2022-07-29T03:02:50;90.10;;;4.80;;
4895;SDS011;2463;49.948;8.472;2022-07-29T03:05:19;90.87;;;4.60;;
4895;SDS011;2463;49.948;8.472;2022-07-29T03:07:55;90.97;;;4.40;;
4895;SDS011;2463;49.948;8.472;2022-07-29T03:10:25;92.27;;;5.10;;
4895;SDS011;2463;49.948;8.472;2022-07-29T03:12:54;88.50;;;4.10;;
4895;SDS011;2463;49.948;8.472;2022-07-29T03:15:21;101.00;;;4.53;;
4895;SDS011;2463;49.948;8.472;2022-07-29T03:17:50;89.80;;;4.40;;
4895;SDS011;2463;49.948;8.472;2022-07-29T03:20:18;89.17;;;4.40;;
4895;SDS011;2463;49.948;8.472;2022-07-29T03:22:45;88.77;;;4.63;;
4895;SDS011;2463;49.948;8.472;2022-07-29T03:25:18;89.90;;;4.40;;
4895;SDS011;2463;49.948;8.472;2022-07-29T03:27:46;90.07;;;5.03;;
4895;SDS011;2463;49.948;8.472;2022-07-29T03:30:14;89.37;;;4.43;;
4895;SDS011;2463;49.948;8.472;2022-07-29T03:32:47;90.53;;;4.70;;
4895;SDS011;2463;49.948;8.472;2022-07-29T03:35:17;89.53;;;4.60;;
4895;SDS011;2463;49.948;8.472;2022-07-29T03:37:45;89.97;;;4.60;;
4895;SDS011;2463;49.948;8.472;2022-07-29T03:40:14;94.07;;;4.50;;
4895;SDS011;2463;49.948;8.472;2022-07-29T03:42:53;93.20;;;4.40;;
4895;SDS011;2463;49.948;8.472;2022-07-29T03:45:21;89.67;;;4.50;;
4895;SDS011;2463;49.948;8.472;2022-07-29T03:47:51;91.30;;;5.30;;
4895;SDS011;2463;49.948;8.472;2022-07-29T03:50:26;91.07;;;4.80;;
4895;SDS011;2463;49.948;8.472;2022-07-29T03:52:54;89.77;;;4.53;;
4895;SDS011;2463;49.948;8.472;2022-07-29T03:55:21;89.83;;;4.60;;
4895;SDS011;2463;49.948;8.472;2022-07-29T03:57:48;91.27;;;4.30;;
4895;SDS011;2463;49.948;8.472;2022-07-29T04:00:15;90.20;;;4.27;;
4895;SDS011;2463;49.948;8.472;2022-07-29T04:02:43;89.27;;;4.53;;
4895;SDS011;2463;49.948;8.472;2022-07-29T04:05:14;91.90;;;4.97;;
4895;SDS011;2463;49.948;8.472;2022-07-29T04:07:45;92.70;;;4.50;;
4895;SDS011;2463;49.948;8.472;2022-07-29T04:10:13;93.20;;;5.00;;
4895;SDS011;2463;49.948;8.472;2022-07-29T04:12:41;91.70;;;5.07;;
4895;SDS011;2463;49.948;8.472;2022-07-29T04:15:09;89.87;;;4.97;;
4895;SDS011;2463;49.948;8.472;2022-07-29T04:17:36;92.50;;;4.80;;
4895;SDS011;2463;49.948;8.472;2022-07-29T04:20:03;92.07;;;4.70;;
4895;SDS011;2463;49.948;8.472;2022-07-29T04:22:30;92.60;;;5.00;;
4895;SDS011;2463;49.948;8.472;2022-07-29T04:24:57;101.57;;;5.43;;
4895;SDS011;2463;49.948;8.472;2022-07-29T04:27:29;90.70;;;4.87;;
4895;SDS011;2463;49.948;8.472;2022-07-29T04:29:56;91.37;;;5.80;;
4895;SDS011;2463;49.948;8.472;2022-07-29T04:32:23;96.00;;;4.87;;
4895;SDS011;2463;49.948;8.472;2022-07-29T04:34:50;91.60;;;4.57;;
4895;SDS011;2463;49.948;8.472;2022-07-29T04:37:17;93.67;;;4.97;;
4895;SDS011;2463;49.948;8.472;2022-07-29T04:39:44;90.47;;;5.00;;
4895;SDS011;2463;49.948;8.472;2022-07-29T04:42:11;93.67;;;5.43;;
4895;SDS011;2463;49.948;8.472;2022-07-29T04:44:38;94.97;;;5.30;;
4895;SDS011;2463;49.948;8.472;2022-07-29T04:47:08;89.80;;;4.70;;
4895;SDS011;2463;49.948;8.472;2022-07-29T04:49:37;90.20;;;4.83;;
4895;SDS011;2463;49.948;8.472;2022-07-29T04:52:05;93.17;;;5.20;;
4895;SDS011;2463;49.948;8.472;2022-07-29T04:54:32;90.60;;;5.20;;
4895;SDS011;2463;49.948;8.472;2022-07-29T04:56:59;90.57;;;4.50;;
4895;SDS011;2463;49.948;8.472;2022-07-29T04:59:26;90.10;;;4.40;;
4895;SDS011;2463;49.948;8.472;2022-07-29T05:01:53;90.07;;;4.63;;
4895;SDS011;2463;49.948;8.472;2022-07-29T05:04:20;95.10;;;4.63;;
4895;SDS011;2463;49.948;8.472;2022-07-29T05:06:46;93.63;;;4.80;;
4895;SDS011;2463;49.948;8.472;2022-07-29T05:09:13;91.97;;;4.97;;
4895;SDS011;2463;49.948;8.472;2022-07-29T05:11:40;91.57;;;5.07;;
4895;SDS011;2463;49.948;8.472;2022-07-29T05:14:07;92.37;;;4.60;;
4895;SDS011;2463;49.948;8.472;2022-07-29T05:16:33;90.10;;;4.70;;
4895;SDS011;2463;49.948;8.472;2022-07-29T05:19:00;90.23;;;4.80;;
4895;SDS011;2463;49.948;8.472;2022-07-29T05:21:27;91.37;;;4.70;;
4895;SDS011;2463;49.948;8.472;2022-07-29T05:23:54;93.70;;;4.73;;
4895;SDS011;2463;49.948;8.472;2022-07-29T05:26:21;92.10;;;4.77;;
4895;SDS011;2463;49.948;8.472;2022-07-29T05:28:47;90.27;;;4.53;;
4895;SDS011;2463;49.948;8.472;2022-07-29T05:31:14;90.97;;;5.30;;
4895;SDS011;2463;49.948;8.472;2022-07-29T05:33:41;91.37;;;4.57;;
4895;SDS011;2463;49.948;8.472;2022-07-29T05:36:08;92.20;;;4.93;;
4895;SDS011;2463;49.948;8.472;2022-07-29T05:38:35;90.03;;;4.63;;
4895;SDS011;2463;49.948;8.472;2022-07-29T05:41:03;91.40;;;4.73;;
4895;SDS011;2463;49.948;8.472;2022-07-29T05:43:31;91.37;;;4.97;;
4895;SDS011;2463;49.948;8.472;2022-07-29T05:45:58;95.00;;;4.80;;
4895;SDS011;2463;49.948;8.472;2022-07-29T05:48:25;92.50;;;4.73;;
4895;SDS011;2463;49.948;8.472;2022-07-29T05:50:52;91.97;;;4.33;;
4895;SDS011;2463;49.948;8.472;2022-07-29T05:53:19;91.50;;;4.97;;
4895;SDS011;2463;49.948;8.472;2022-07-29T05:55:47;90.47;;;4.50;;
4895;SDS011;2463;49.948;8.472;2022-07-29T05:58:14;97.90;;;4.53;;
4895;SDS011;2463;49.948;8.472;2022-07-29T06:00:41;91.47;;;4.57;;
4895;SDS011;2463;49.948;8.472;2022-07-29T06:03:07;90.90;;;4.53;;
4895;SDS011;2463;49.948;8.472;2022-07-29T06:05:34;90.67;;;4.33;;
4895;SDS011;2463;49.948;8.472;2022-07-29T06:08:01;91.03;;;4.57;;
4895;SDS011;2463;49.948;8.472;2022-07-29T06:10:28;91.80;;;5.00;;
4895;SDS011;2463;49.948;8.472;2022-07-29T06:12:55;92.37;;;4.40;;
4895;SDS011;2463;49.948;8.472;2022-07-29T06:15:21;89.90;;;4.73;;
4895;SDS011;2463;49.948;8.472;2022-07-29T06:17:48;91.77;;;4.77;;
4895;SDS011;2463;49.948;8.472;2022-07-29T06:20:26;90.67;;;4.23;;
4895;SDS011;2463;49.948;8.472;2022-07-29T06:22:58;89.80;;;4.40;;
4895;SDS011;2463;49.948;8.472;2022-07-29T06:25:25;88.37;;;4.30;;
4895;SDS011;2463;49.948;8.472;2022-07-29T06:27:55;89.27;;;4.30;;
4895;SDS011;2463;49.948;8.472;2022-07-29T06:30:22;89.37;;;4.73;;
4895;SDS011;2463;49.948;8.472;2022-07-29T06:32:48;89.30;;;5.00;;
4895;SDS011;2463;49.948;8.472;2022-07-29T06:35:15;87.37;;;4.63;;
4895;SDS011;2463;49.948;8.472;2022-07-29T06:38:02;86.17;;;4.40;;
4895;SDS011;2463;49.948;8.472;2022-07-29T06:40:49;85.77;;;4.00;;
4895;SDS011;2463;49.948;8.472;2022-07-29T06:43:36;85.20;;;4.13;;
4895;SDS011;2463;49.948;8.472;2022-07-29T06:46:19;87.90;;;3.60;;
4895;SDS011;2463;49.948;8.472;2022-07-29T06:48:47;84.13;;;3.13;;
4895;SDS011;2463;49.948;8.472;2022-07-29T06:51:14;83.00;;;3.30;;
4895;SDS011;2463;49.948;8.472;2022-07-29T06:53:48;83.87;;;3.40;;
4895;SDS011;2463;49.948;8.472;2022-07-29T06:56:31;79.33;;;3.10;;
4895;SDS011;2463;49.948;8.472;2022-07-29T06:59:05;81.10;;;3.33;;
4895;SDS011;2463;49.948;8.472;2022-07-29T07:01:36;78.00;;;3.03;;
4895;SDS011;2463;49.948;8.472;2022-07-29T07:04:04;80.10;;;3.07;;
4895;SDS011;2463;49.948;8.472;2022-07-29T07:06:31;77.00;;;2.60;;
4895;SDS011;2463;49.948;8.472;2022-07-29T07:08:57;76.87;;;2.87;;
4895;SDS011;2463;49.948;8.472;2022-07-29T07:11:24;78.47;;;3.00;;
4895;SDS011;2463;49.948;8.472;2022-07-29T07:13:51;77.37;;;2.67;;
4895;SDS011;2463;49.948;8.472;2022-07-29T07:16:17;76.73;;;2.57;;
4895;SDS011;2463;49.948;8.472;2022-07-29T07:18:44;79.40;;;2.70;;
4895;SDS011;2463;49.948;8.472;2022-07-29T07:21:11;76.93;;;2.90;;
4895;SDS011;2463;49.948;8.472;2022-07-29T07:23:44;76.60;;;3.00;;
4895;SDS011;2463;49.948;8.472;2022-07-29T07:26:11;76.30;;;3.03;;
4895;SDS011;2463;49.948;8.472;2022-07-29T07:28:38;77.67;;;3.23;;
4895;SDS011;2463;49.948;8.472;2022-07-29T07:31:05;76.63;;;2.60;;
4895;SDS011;2463;49.948;8.472;2022-07-29T07:33:32;85.33;;;3.20;;
4895;SDS011;2463;49.948;8.472;2022-07-29T07:35:58;76.60;;;2.77;;
4895;SDS011;2463;49.948;8.472;2022-07-29T07:38:25;82.20;;;3.43;;
4895;SDS011;2463;49.948;8.472;2022-07-29T07:40:52;81.20;;;3.50;;
4895;SDS011;2463;49.948;8.472;2022-07-29T07:43:19;79.17;;;3.07;;
4895;SDS011;2463;49.948;8.472;2022-07-29T07:45:45;80.97;;;3.27;;
4895;SDS011;2463;49.948;8.472;2022-07-29T07:48:12;79.80;;;3.27;;
4895;SDS011;2463;49.948;8.472;2022-07-29T07:50:39;80.37;;;3.67;;
4895;SDS011;2463;49.948;8.472;2022-07-29T07:53:06;80.50;;;3.37;;
4895;SDS011;2463;49.948;8.472;2022-07-29T07:55:32;81.83;;;3.63;;
4895;SDS011;2463;49.948;8.472;2022-07-29T07:58:19;80.50;;;3.20;;
4895;SDS011;2463;49.948;8.472;2022-07-29T08:00:46;84.20;;;3.50;;
4895;SDS011;2463;49.948;8.472;2022-07-29T08:03:13;82.33;;;3.23;;
4895;SDS011;2463;49.948;8.472;2022-07-29T08:05:42;81.40;;;3.47;;
4895;SDS011;2463;49.948;8.472;2022-07-29T08:08:09;81.90;;;3.40;;
4895;SDS011;2463;49.948;8.472;2022-07-29T08:10:36;83.40;;;3.50;;
4895;SDS011;2463;49.948;8.472;2022-07-29T08:13:19;82.90;;;3.43;;
4895;SDS011;2463;49.948;8.472;2022-07-29T08:15:47;84.67;;;3.87;;
4895;SDS011;2463;49.948;8.472;2022-07-29T08:18:23;81.30;;;3.30;;
4895;SDS011;2463;49.948;8.472;2022-07-29T08:20:51;80.73;;;3.50;;
4895;SDS011;2463;49.948;8.472;2022-07-29T08:23:18;84.87;;;3.83;;
4895;SDS011;2463;49.948;8.472;2022-07-29T08:25:50;86.83;;;3.90;;
4895;SDS011;2463;49.948;8.472;2022-07-29T08:28:19;81.83;;;3.83;;
4895;SDS011;2463;49.948;8.472;2022-07-29T08:30:51;81.03;;;3.70;;
4895;SDS011;2463;49.948;8.472;2022-07-29T08:33:18;85.17;;;3.57;;
4895;SDS011;2463;49.948;8.472;2022-07-29T08:35:44;80.57;;;3.30;;
4895;SDS011;2463;49.948;8.472;2022-07-29T08:38:11;80.40;;;3.27;;
4895;SDS011;2463;49.948;8.472;2022-07-29T08:40:38;82.37;;;3.50;;
4895;SDS011;2463;49.948;8.472;2022-07-29T08:43:06;80.80;;;3.53;;
4895;SDS011;2463;49.948;8.472;2022-07-29T08:45:41;80.10;;;3.30;;
4895;SDS011;2463;49.948;8.472;2022-07-29T08:48:16;79.37;;;3.13;;
4895;SDS011;2463;49.948;8.472;2022-07-29T08:50:44;80.17;;;3.20;;
4895;SDS011;2463;49.948;8.472;2022-07-29T08:53:15;80.90;;;3.70;;
4895;SDS011;2463;49.948;8.472;2022-07-29T08:55:44;79.93;;;3.40;;
4895;SDS011;2463;49.948;8.472;2022-07-29T08:58:16;84.10;;;4.30;;
4895;SDS011;2463;49.948;8.472;2022-07-29T09:00:51;83.87;;;3.20;;
4895;SDS011;2463;49.948;8.472;2022-07-29T09:03:23;80.90;;;3.60;;
4895;SDS011;2463;49.948;8.472;2022-07-29T09:05:51;80.47;;;3.33;;
4895;SDS011;2463;49.948;8.472;2022-07-29T09:08:19;81.87;;;3.30;;
4895;SDS011;2463;49.948;8.472;2022-07-29T09:10:46;84.00;;;3.53;;
4895;SDS011;2463;49.948;8.472;2022-07-29T09:13:13;82.30;;;3.70;;
4895;SDS011;2463;49.948;8.472;2022-07-29T09:15:40;82.10;;;3.60;;
4895;SDS011;2463;49.948;8.472;2022-07-29T09:18:06;82.50;;;3.90;;
4895;SDS011;2463;49.948;8.472;2022-07-29T09:20:50;80.37;;;3.30;;
4895;SDS011;2463;49.948;8.472;2022-07-29T09:23:36;82.23;;;3.73;;
4895;SDS011;2463;49.948;8.472;2022-07-29T09:26:04;84.00;;;3.97;;
4895;SDS011;2463;49.948;8.472;2022-07-29T09:28:31;80.20;;;3.20;;
4895;SDS011;2463;49.948;8.472;2022-07-29T09:30:58;79.80;;;3.87;;
4895;SDS011;2463;49.948;8.472;2022-07-29T09:33:32;82.07;;;3.77;;
4895;SDS011;2463;49.948;8.472;2022-07-29T09:36:06;80.30;;;3.60;;
4895;SDS011;2463;49.948;8.472;2022-07-29T09:38:35;81.40;;;3.20;;
4895;SDS011;2463;49.948;8.472;2022-07-29T09:41:03;80.37;;;3.17;;
4895;SDS011;2463;49.948;8.472;2022-07-29T09:43:32;81.90;;;3.50;;
4895;SDS011;2463;49.948;8.472;2022-07-29T09:46:12;82.67;;;3.53;;
4895;SDS011;2463;49.948;8.472;2022-07-29T09:48:39;79.60;;;3.70;;
4895;SDS011;2463;49.948;8.472;2022-07-29T09:51:19;83.00;;;4.33;;
4895;SDS011;2463;49.948;8.472;2022-07-29T09:54:24;82.73;;;3.70;;
4895;SDS011;2463;49.948;8.472;2022-07-29T09:56:52;79.00;;;3.20;;
4895;SDS011;2463;49.948;8.472;2022-07-29T09:59:21;80.30;;;3.50;;
4895;SDS011;2463;49.948;8.472;2022-07-29T10:01:52;80.97;;;3.00;;
4895;SDS011;2463;49.948;8.472;2022-07-29T10:04:20;77.67;;;3.40;;
4895;SDS011;2463;49.948;8.472;2022-07-29T10:07:00;79.90;;;3.80;;
4895;SDS011;2463;49.948;8.472;2022-07-29T10:09:30;78.67;;;3.23;;
4895;SDS011;2463;49.948;8.472;2022-07-29T10:12:07;78.57;;;3.27;;
4895;SDS011;2463;49.948;8.472;2022-07-29T10:14:37;78.40;;;3.27;;
4895;SDS011;2463;49.948;8.472;2022-07-29T10:17:05;78.00;;;3.10;;
4895;SDS011;2463;49.948;8.472;2022-07-29T10:19:33;79.20;;;3.50;;
4895;SDS011;2463;49.948;8.472;2022-07-29T10:22:03;76.77;;;2.90;;
4895;SDS011;2463;49.948;8.472;2022-07-29T10:24:32;79.40;;;3.70;;
4895;SDS011;2463;49.948;8.472;2022-07-29T10:27:00;77.27;;;3.17;;
4895;SDS011;2463;49.948;8.472;2022-07-29T10:29:28;78.50;;;3.40;;
4895;SDS011;2463;49.948;8.472;2022-07-29T10:32:11;76.13;;;2.90;;
4895;SDS011;2463;49.948;8.472;2022-07-29T10:38:02;77.33;;;3.03;;
4895;SDS011;2463;49.948;8.472;2022-07-29T10:44:23;77.60;;;3.33;;
4895;SDS011;2463;49.948;8.472;2022-07-29T10:46:51;76.30;;;3.20;;
4895;SDS011;2463;49.948;8.472;2022-07-29T10:49:20;75.17;;;3.00;;
4895;SDS011;2463;49.948;8.472;2022-07-29T10:57:18;76.40;;;3.00;;
4895;SDS011;2463;49.948;8.472;2022-07-29T11:02:42;75.77;;;3.10;;
4895;SDS011;2463;49.948;8.472;2022-07-29T11:07:38;75.00;;;3.33;;
4895;SDS011;2463;49.948;8.472;2022-07-29T11:10:27;75.57;;;2.70;;
4895;SDS011;2463;49.948;8.472;2022-07-29T11:12:56;75.60;;;3.20;;
4895;SDS011;2463;49.948;8.472;2022-07-29T11:15:24;79.30;;;3.10;;
4895;SDS011;2463;49.948;8.472;2022-07-29T11:20:41;74.10;;;2.70;;
4895;SDS011;2463;49.948;8.472;2022-07-29T11:23:22;76.17;;;2.53;;
4895;SDS011;2463;49.948;8.472;2022-07-29T11:31:32;75.83;;;2.87;;
4895;SDS011;2463;49.948;8.472;2022-07-29T11:34:20;76.50;;;3.30;;
4895;SDS011;2463;49.948;8.472;2022-07-29T11:39:36;75.87;;;2.80;;
4895;SDS011;2463;49.948;8.472;2022-07-29T11:47:56;76.50;;;2.97;;
4895;SDS011;2463;49.948;8.472;2022-07-29T11:50:46;76.37;;;3.90;;
4895;SDS011;2463;49.948;8.472;2022-07-29T11:53:14;76.97;;;3.20;;
4895;SDS011;2463;49.948;8.472;2022-07-29T11:55:42;77.47;;;3.50;;
4895;SDS011;2463;49.948;8.472;2022-07-29T11:58:20;77.50;;;3.37;;
4895;SDS011;2463;49.948;8.472;2022-07-29T12:01:12;77.67;;;4.10;;
4895;SDS011;2463;49.948;8.472;2022-07-29T12:03:40;76.87;;;3.40;;
4895;SDS011;2463;49.948;8.472;2022-07-29T12:06:13;81.07;;;3.67;;
4895;SDS011;2463;49.948;8.472;2022-07-29T12:08:43;76.77;;;3.53;;
4895;SDS011;2463;49.948;8.472;2022-07-29T12:11:16;78.20;;;3.40;;
4895;SDS011;2463;49.948;8.472;2022-07-29T12:13:47;78.70;;;3.80;;
4895;SDS011;2463;49.948;8.472;2022-07-29T12:16:15;77.10;;;3.30;;
4895;SDS011;2463;49.948;8.472;2022-07-29T12:18:58;78.10;;;3.47;;
4895;SDS011;2463;49.948;8.472;2022-07-29T12:21:27;77.57;;;3.33;;
4895;SDS011;2463;49.948;8.472;2022-07-29T12:23:55;80.67;;;3.93;;
4895;SDS011;2463;49.948;8.472;2022-07-29T12:26:30;82.00;;;3.90;;
4895;SDS011;2463;49.948;8.472;2022-07-29T12:28:59;76.80;;;3.27;;
4895;SDS011;2463;49.948;8.472;2022-07-29T12:31:28;81.80;;;3.27;;
4895;SDS011;2463;49.948;8.472;2022-07-29T12:34:07;79.07;;;4.13;;
4895;SDS011;2463;49.948;8.472;2022-07-29T12:36:34;77.10;;;3.20;;
4895;SDS011;2463;49.948;8.472;2022-07-29T12:39:02;76.33;;;3.20;;
4895;SDS011;2463;49.948;8.472;2022-07-29T12:41:30;76.57;;;3.40;;
4895;SDS011;2463;49.948;8.472;2022-07-29T12:43:57;81.07;;;3.40;;
4895;SDS011;2463;49.948;8.472;2022-07-29T12:46:23;79.00;;;3.63;;
4895;SDS011;2463;49.948;8.472;2022-07-29T12:48:51;76.87;;;3.30;;
4895;SDS011;2463;49.948;8.472;2022-07-29T12:51:29;77.57;;;3.20;;
4895;SDS011;2463;49.948;8.472;2022-07-29T12:54:04;75.97;;;3.17;;
4895;SDS011;2463;49.948;8.472;2022-07-29T12:56:32;77.80;;;3.10;;
4895;SDS011;2463;49.948;8.472;2022-07-29T13:01:49;81.47;;;3.40;;
4895;SDS011;2463;49.948;8.472;2022-07-29T13:04:27;78.67;;;3.30;;
4895;SDS011;2463;49.948;8.472;2022-07-29T13:07:02;79.60;;;3.33;;
4895;SDS011;2463;49.948;8.472;2022-07-29T13:09:42;80.03;;;3.30;;
4895;SDS011;2463;49.948;8.472;2022-07-29T13:12:12;81.03;;;3.47;;
4895;SDS011;2463;49.948;8.472;2022-07-29T13:14:40;79.47;;;3.80;;
4895;SDS011;2463;49.948;8.472;2022-07-29T13:17:10;76.90;;;3.13;;
4895;SDS011;2463;49.948;8.472;2022-07-29T13:19:51;82.03;;;3.60;;
4895;SDS011;2463;49.948;8.472;2022-07-29T13:22:23;76.97;;;3.40;;
4895;SDS011;2463;49.948;8.472;2022-07-29T13:24:51;77.20;;;3.43;;
4895;SDS011;2463;49.948;8.472;2022-07-29T13:27:29;75.40;;;3.00;;
4895;SDS011;2463;49.948;8.472;2022-07-29T13:29:58;75.70;;;3.10;;
4895;SDS011;2463;49.948;8.472;2022-07-29T13:32:27;77.97;;;3.43;;
4895;SDS011;2463;49.948;8.472;2022-07-29T13:34:56;76.03;;;3.10;;
4895;SDS011;2463;49.948;8.472;2022-07-29T13:37:23;79.70;;;3.27;;
4895;SDS011;2463;49.948;8.472;2022-07-29T13:39:52;78.67;;;3.70;;
4895;SDS011;2463;49.948;8.472;2022-07-29T13:42:20;77.60;;;3.23;;
4895;SDS011;2463;49.948;8.472;2022-07-29T13:44:47;79.93;;;3.50;;
4895;SDS011;2463;49.948;8.472;2022-07-29T13:47:17;78.40;;;3.40;;
4895;SDS011;2463;49.948;8.472;2022-07-29T13:49:44;77.57;;;3.20;;
4895;SDS011;2463;49.948;8.472;2022-07-29T13:52:11;80.17;;;3.60;;
4895;SDS011;2463;49.948;8.472;2022-07-29T13:54:38;78.60;;;3.47;;
4895;SDS011;2463;49.948;8.472;2022-07-29T13:57:08;77.87;;;3.60;;
4895;SDS011;2463;49.948;8.472;2022-07-29T13:59:37;84.07;;;3.70;;
4895;SDS011;2463;49.948;8.472;2022-07-29T14:02:04;81.80;;;3.80;;
4895;SDS011;2463;49.948;8.472;2022-07-29T14:04:32;81.13;;;3.73;;
4895;SDS011;2463;49.948;8.472;2022-07-29T14:06:59;79.97;;;3.43;;
4895;SDS011;2463;49.948;8.472;2022-07-29T14:09:29;80.57;;;3.83;;
4895;SDS011;2463;49.948;8.472;2022-07-29T14:12:07;80.90;;;3.53;;
4895;SDS011;2463;49.948;8.472;2022-07-29T14:14:34;83.20;;;3.73;;
4895;SDS011;2463;49.948;8.472;2022-07-29T14:17:02;81.20;;;4.00;;
4895;SDS011;2463;49.948;8.472;2022-07-29T14:19:30;81.00;;;4.30;;
4895;SDS011;2463;49.948;8.472;2022-07-29T14:21:58;82.77;;;3.73;;
4895;SDS011;2463;49.948;8.472;2022-07-29T14:24:25;80.97;;;3.60;;
4895;SDS011;2463;49.948;8.472;2022-07-29T14:26:52;81.73;;;3.60;;
4895;SDS011;2463;49.948;8.472;2022-07-29T14:29:19;81.10;;;3.90;;
4895;SDS011;2463;49.948;8.472;2022-07-29T14:31:46;79.20;;;3.70;;
4895;SDS011;2463;49.948;8.472;2022-07-29T14:34:12;81.17;;;4.07;;
4895;SDS011;2463;49.948;8.472;2022-07-29T14:36:41;80.80;;;4.00;;
4895;SDS011;2463;49.948;8.472;2022-07-29T14:39:08;81.17;;;3.83;;
4895;SDS011;2463;49.948;8.472;2022-07-29T14:41:34;80.20;;;3.80;;
4895;SDS011;2463;49.948;8.472;2022-07-29T14:44:01;81.80;;;3.90;;
4895;SDS011;2463;49.948;8.472;2022-07-29T14:46:28;80.87;;;3.83;;
4895;SDS011;2463;49.948;8.472;2022-07-29T14:48:55;81.60;;;4.20;;
4895;SDS011;2463;49.948;8.472;2022-07-29T14:51:22;82.00;;;3.80;;
4895;SDS011;2463;49.948;8.472;2022-07-29T14:53:57;81.07;;;3.80;;
4895;SDS011;2463;49.948;8.472;2022-07-29T14:56:24;81.07;;;4.23;;
4895;SDS011;2463;49.948;8.472;2022-07-29T14:59:10;80.97;;;3.50;;
4895;SDS011;2463;49.948;8.472;2022-07-29T15:01:37;81.70;;;4.20;;
4895;SDS011;2463;49.948;8.472;2022-07-29T15:04:04;89.10;;;4.43;;
4895;SDS011;2463;49.948;8.472;2022-07-29T15:06:31;83.67;;;3.67;;
4895;SDS011;2463;49.948;8.472;2022-07-29T15:08:57;82.70;;;3.80;;
4895;SDS011;2463;49.948;8.472;2022-07-29T15:11:24;82.70;;;3.83;;
4895;SDS011;2463;49.948;8.472;2022-07-29T15:13:51;84.27;;;4.10;;
4895;SDS011;2463;49.948;8.472;2022-07-29T15:16:18;82.57;;;4.53;;
4895;SDS011;2463;49.948;8.472;2022-07-29T15:18:44;81.27;;;3.73;;
4895;SDS011;2463;49.948;8.472;2022-07-29T15:21:11;82.50;;;3.90;;
4895;SDS011;2463;49.948;8.472;2022-07-29T15:23:38;82.03;;;3.70;;
4895;SDS011;2463;49.948;8.472;2022-07-29T15:26:05;82.43;;;3.40;;
4895;SDS011;2463;49.948;8.472;2022-07-29T15:28:31;83.60;;;4.27;;
4895;SDS011;2463;49.948;8.472;2022-07-29T15:30:58;82.50;;;3.93;;
4895;SDS011;2463;49.948;8.472;2022-07-29T15:33:25;83.07;;;3.53;;
4895;SDS011;2463;49.948;8.472;2022-07-29T15:35:52;85.00;;;3.73;;
4895;SDS011;2463;49.948;8.472;2022-07-29T15:38:18;81.20;;;3.30;;
4895;SDS011;2463;49.948;8.472;2022-07-29T15:40:53;92.23;;;4.83;;
4895;SDS011;2463;49.948;8.472;2022-07-29T15:43:20;82.17;;;3.57;;
4895;SDS011;2463;49.948;8.472;2022-07-29T15:45:47;84.27;;;4.53;;
4895;SDS011;2463;49.948;8.472;2022-07-29T15:48:32;84.87;;;4.23;;
4895;SDS011;2463;49.948;8.472;2022-07-29T15:51:03;83.60;;;4.10;;
4895;SDS011;2463;49.948;8.472;2022-07-29T15:53:29;84.13;;;4.40;;
4895;SDS011;2463;49.948;8.472;2022-07-29T15:55:58;88.63;;;4.20;;
4895;SDS011;2463;49.948;8.472;2022-07-29T15:58:24;81.80;;;4.20;;
4895;SDS011;2463;49.948;8.472;2022-07-29T16:00:51;83.90;;;4.47;;
4895;SDS011;2463;49.948;8.472;2022-07-29T16:03:18;84.47;;;4.90;;
4895;SDS011;2463;49.948;8.472;2022-07-29T16:05:46;87.07;;;4.30;;
4895;SDS011;2463;49.948;8.472;2022-07-29T16:08:12;84.37;;;4.30;;
4895;SDS011;2463;49.948;8.472;2022-07-29T16:10:39;85.13;;;4.93;;